createdAt,value
2022-10-13T00:01:08.794Z,12.00
2022-10-13T00:03:37.830Z,12.00
2022-10-13T00:06:05.866Z,12.00
2022-10-13T00:08:32.979Z,12.00
2022-10-13T00:11:00.658Z,12.00
2022-10-13T00:13:28.385Z,12.00
2022-10-13T00:15:55.313Z,12.00
2022-10-13T00:18:22.834Z,11.90
2022-10-13T00:20:51.128Z,11.90
2022-10-13T00:23:18.596Z,11.90
2022-10-13T00:25:48.067Z,11.90
2022-10-13T00:28:16.908Z,11.90
2022-10-13T00:30:44.036Z,11.90
2022-10-13T00:33:12.473Z,11.90
2022-10-13T00:35:45.073Z,11.90
2022-10-13T00:38:16.061Z,11.80
2022-10-13T00:40:47.931Z,11.80
2022-10-13T00:43:45.598Z,11.90
2022-10-13T00:46:13.199Z,11.90
2022-10-13T00:48:41.865Z,11.80
2022-10-13T00:51:11.296Z,11.80
2022-10-13T00:53:39.803Z,11.80
2022-10-13T00:56:07.999Z,11.80
2022-10-13T00:58:36.553Z,11.80
2022-10-13T01:01:04.350Z,11.70
2022-10-13T01:03:31.776Z,11.70
2022-10-13T01:06:03.281Z,11.70
2022-10-13T01:08:31.276Z,11.60
2022-10-13T01:11:22.744Z,11.60
2022-10-13T01:14:07.718Z,11.60
2022-10-13T01:17:05.821Z,11.60
2022-10-13T01:19:44.701Z,11.50
2022-10-13T01:22:39.520Z,11.50
2022-10-13T01:25:39.455Z,11.50
2022-10-13T01:28:32.899Z,11.40
2022-10-13T01:31:12.502Z,11.40
2022-10-13T01:33:49.874Z,11.40
2022-10-13T01:36:26.035Z,11.40
2022-10-13T01:38:58.894Z,11.40
2022-10-13T01:41:34.134Z,11.30
2022-10-13T01:44:13.066Z,11.30
2022-10-13T01:47:04.112Z,11.30
2022-10-13T01:49:34.709Z,11.30
2022-10-13T01:52:09.028Z,11.30
2022-10-13T01:54:36.179Z,11.30
2022-10-13T01:57:03.169Z,11.30
2022-10-13T01:59:33.968Z,11.20
2022-10-13T02:02:26.927Z,11.20
2022-10-13T02:04:54.080Z,11.20
2022-10-13T02:07:28.114Z,11.20
2022-10-13T02:10:06.695Z,11.20
2022-10-13T02:12:47.087Z,11.20
2022-10-13T02:15:19.210Z,11.20
2022-10-13T02:17:46.143Z,11.20
2022-10-13T02:20:15.377Z,11.20
2022-10-13T02:22:46.164Z,11.20
2022-10-13T02:25:13.214Z,11.20
2022-10-13T02:27:40.701Z,11.20
2022-10-13T02:30:08.373Z,11.20
2022-10-13T02:32:35.271Z,11.20
2022-10-13T02:35:02.247Z,11.20
2022-10-13T02:37:29.155Z,11.20
2022-10-13T02:39:56.158Z,11.30
2022-10-13T02:42:23.545Z,11.20
2022-10-13T02:44:55.653Z,11.20
2022-10-13T02:47:22.692Z,11.20
2022-10-13T02:49:49.553Z,11.20
2022-10-13T02:52:16.608Z,11.30
2022-10-13T02:54:44.864Z,11.20
2022-10-13T02:57:11.861Z,11.20
2022-10-13T02:59:38.821Z,11.30
2022-10-13T03:02:05.797Z,11.30
2022-10-13T03:04:33.263Z,11.30
2022-10-13T03:07:01.905Z,11.30
2022-10-13T03:09:28.851Z,11.30
2022-10-13T03:11:55.816Z,11.20
2022-10-13T03:14:22.748Z,11.20
2022-10-13T03:16:49.693Z,11.20
2022-10-13T03:19:20.341Z,11.20
2022-10-13T03:21:47.412Z,11.20
2022-10-13T03:24:14.307Z,11.20
2022-10-13T03:26:41.247Z,11.20
2022-10-13T03:29:08.213Z,11.20
2022-10-13T03:31:35.456Z,11.20
2022-10-13T03:34:02.564Z,11.20
2022-10-13T03:36:29.561Z,11.20
2022-10-13T03:38:56.418Z,11.20
2022-10-13T03:41:23.347Z,11.20
2022-10-13T03:43:50.831Z,11.20
2022-10-13T03:46:19.200Z,11.10
2022-10-13T03:48:47.564Z,11.20
2022-10-13T03:51:18.561Z,11.20
2022-10-13T03:53:46.983Z,11.20
2022-10-13T03:56:19.264Z,11.20
2022-10-13T03:58:59.761Z,11.20
2022-10-13T04:01:28.833Z,11.20
2022-10-13T04:03:56.715Z,11.10
2022-10-13T04:06:25.244Z,11.10
2022-10-13T04:08:52.451Z,11.10
2022-10-13T04:11:20.243Z,11.10
2022-10-13T04:13:51.356Z,11.00
2022-10-13T04:16:21.081Z,11.00
2022-10-13T04:18:52.842Z,11.00
2022-10-13T04:21:19.903Z,11.00
2022-10-13T04:23:46.863Z,11.00
2022-10-13T04:26:23.875Z,11.00
2022-10-13T04:28:52.699Z,11.00
2022-10-13T04:31:22.142Z,11.00
2022-10-13T04:33:50.009Z,11.00
2022-10-13T04:36:17.866Z,11.00
2022-10-13T04:38:46.188Z,11.00
2022-10-13T04:41:14.540Z,11.00
2022-10-13T04:43:42.309Z,11.00
2022-10-13T04:46:10.860Z,10.90
2022-10-13T04:48:37.740Z,10.90
2022-10-13T04:51:10.690Z,10.90
2022-10-13T04:53:38.095Z,10.90
2022-10-13T04:56:09.954Z,10.90
2022-10-13T04:58:38.371Z,10.90
2022-10-13T05:01:07.076Z,10.90
2022-10-13T05:03:34.978Z,10.90
2022-10-13T05:06:02.008Z,10.90
2022-10-13T05:08:28.994Z,10.90
2022-10-13T05:10:56.332Z,10.90
2022-10-13T05:13:23.958Z,10.90
2022-10-13T05:15:51.729Z,10.90
2022-10-13T05:18:22.110Z,10.90
2022-10-13T05:20:49.404Z,10.90
2022-10-13T05:23:17.370Z,10.90
2022-10-13T05:25:44.262Z,10.90
2022-10-13T05:28:13.992Z,10.90
2022-10-13T05:30:41.026Z,10.90
2022-10-13T05:33:08.058Z,10.90
2022-10-13T05:35:35.065Z,10.90
2022-10-13T05:38:02.004Z,10.90
2022-10-13T05:40:29.328Z,10.90
2022-10-13T05:43:00.628Z,10.80
2022-10-13T05:45:32.266Z,10.80
2022-10-13T05:47:59.301Z,10.80
2022-10-13T05:50:26.328Z,10.80
2022-10-13T05:52:53.273Z,10.80
2022-10-13T05:55:20.233Z,10.80
2022-10-13T05:57:51.975Z,10.80
2022-10-13T06:00:20.493Z,10.80
2022-10-13T06:02:56.506Z,10.80
2022-10-13T06:05:26.408Z,10.80
2022-10-13T06:07:58.237Z,10.80
2022-10-13T06:10:26.266Z,10.70
2022-10-13T06:12:53.213Z,10.70
2022-10-13T06:15:23.317Z,10.70
2022-10-13T06:17:52.709Z,10.70
2022-10-13T06:20:20.452Z,10.70
2022-10-13T06:22:52.100Z,10.60
2022-10-13T06:25:19.067Z,10.60
2022-10-13T06:27:45.970Z,10.50
2022-10-13T06:30:12.967Z,10.50
2022-10-13T06:32:39.907Z,10.50
2022-10-13T06:35:07.477Z,10.50
2022-10-13T06:37:34.398Z,10.40
2022-10-13T06:40:01.425Z,10.40
2022-10-13T06:42:31.805Z,10.30
2022-10-13T06:45:16.751Z,10.40
2022-10-13T06:47:43.782Z,10.30
2022-10-13T06:50:11.388Z,10.30
2022-10-13T06:52:38.572Z,10.30
2022-10-13T06:55:05.949Z,10.20
2022-10-13T06:57:33.667Z,10.20
2022-10-13T07:00:02.111Z,10.20
2022-10-13T07:02:29.044Z,10.10
2022-10-13T07:04:55.945Z,10.10
2022-10-13T07:07:23.148Z,10.10
2022-10-13T07:09:50.464Z,10.10
2022-10-13T07:12:17.742Z,10.00
2022-10-13T07:14:44.913Z,10.00
2022-10-13T07:17:11.835Z,10.00
2022-10-13T07:19:38.853Z,10.00
2022-10-13T07:22:05.760Z,10.00
2022-10-13T07:24:32.812Z,10.00
2022-10-13T07:27:03.953Z,9.90
2022-10-13T07:29:33.844Z,10.00
2022-10-13T07:32:00.901Z,10.00
2022-10-13T07:34:27.844Z,9.90
2022-10-13T07:36:54.712Z,9.90
2022-10-13T07:39:21.653Z,9.90
2022-10-13T07:41:51.064Z,9.90
2022-10-13T07:44:18.792Z,9.90
2022-10-13T07:46:45.741Z,9.90
2022-10-13T07:49:16.041Z,9.90
2022-10-13T07:51:44.415Z,9.90
2022-10-13T07:54:11.416Z,9.90
2022-10-13T07:56:39.601Z,9.90
2022-10-13T07:59:07.328Z,9.90
2022-10-13T08:01:34.390Z,9.90
2022-10-13T08:04:01.344Z,9.90
2022-10-13T08:06:28.480Z,9.90
2022-10-13T08:08:58.178Z,9.90
2022-10-13T08:11:25.199Z,9.90
2022-10-13T08:13:52.794Z,9.90
2022-10-13T08:16:22.816Z,9.90
2022-10-13T08:18:50.064Z,9.90
2022-10-13T08:24:14.678Z,10.00
2022-10-13T08:26:43.148Z,10.00
2022-10-13T08:29:21.440Z,10.00
2022-10-13T08:34:22.886Z,10.10
2022-10-13T08:36:53.367Z,10.10
2022-10-13T08:39:22.336Z,10.20
2022-10-13T08:41:50.176Z,10.30
2022-10-13T08:47:39.443Z,10.60
2022-10-13T08:50:20.896Z,10.80
2022-10-13T08:52:55.303Z,11.00
2022-10-13T08:55:40.258Z,11.20
2022-10-13T08:58:29.005Z,11.30
2022-10-13T09:01:23.747Z,11.40
2022-10-13T09:03:55.296Z,11.60
2022-10-13T09:06:35.717Z,11.70
2022-10-13T09:09:10.584Z,11.80
2022-10-13T09:11:40.664Z,12.10
2022-10-13T09:14:18.893Z,12.20
2022-10-13T09:16:46.447Z,12.40
2022-10-13T09:19:22.518Z,12.40
2022-10-13T09:21:58.479Z,12.40
2022-10-13T09:24:27.130Z,12.40
2022-10-13T09:27:07.343Z,12.40
2022-10-13T09:29:38.660Z,12.30
2022-10-13T09:32:21.026Z,12.30
2022-10-13T09:34:49.327Z,12.30
2022-10-13T09:37:22.582Z,12.20
2022-10-13T09:40:21.925Z,12.20
2022-10-13T09:42:53.660Z,12.20
2022-10-13T09:45:24.476Z,12.10
2022-10-13T09:47:55.406Z,12.10
2022-10-13T09:50:31.960Z,12.10
2022-10-13T09:53:36.844Z,12.10
2022-10-13T09:56:37.892Z,12.10
2022-10-13T09:59:21.253Z,12.20
2022-10-13T10:01:50.179Z,12.20
2022-10-13T10:04:27.146Z,12.40
2022-10-13T10:06:54.112Z,12.50
2022-10-13T10:10:01.844Z,12.70
2022-10-13T10:12:32.075Z,12.80
2022-10-13T10:14:59.064Z,12.90
2022-10-13T10:17:54.379Z,13.00
2022-10-13T10:20:27.259Z,13.30
2022-10-13T10:23:11.229Z,13.80
2022-10-13T10:25:51.892Z,14.40
2022-10-13T10:28:39.916Z,15.20
2022-10-13T10:31:32.477Z,15.90
2022-10-13T10:34:23.559Z,16.50
2022-10-13T10:37:25.273Z,17.30
2022-10-13T10:39:52.398Z,18.10
2022-10-13T10:42:37.608Z,18.80
2022-10-13T10:45:14.324Z,19.40
2022-10-13T10:47:44.691Z,19.90
2022-10-13T10:50:16.198Z,20.40
2022-10-13T10:53:04.389Z,20.90
2022-10-13T10:55:51.172Z,21.40
2022-10-13T10:58:57.979Z,21.80
2022-10-13T11:01:44.289Z,22.10
2022-10-13T11:04:17.130Z,22.40
2022-10-13T11:06:44.078Z,22.60
2022-10-13T11:09:12.357Z,22.80
2022-10-13T11:11:40.306Z,23.10
2022-10-13T11:14:12.343Z,23.20
2022-10-13T11:17:01.978Z,23.20
2022-10-13T11:19:30.292Z,23.10
2022-10-13T11:21:57.090Z,23.00
2022-10-13T11:24:42.467Z,22.80
2022-10-13T11:27:24.423Z,22.50
2022-10-13T11:29:57.905Z,22.30
2022-10-13T11:32:41.332Z,22.00
2022-10-13T11:35:08.409Z,21.70
2022-10-13T11:37:35.297Z,21.40
2022-10-13T11:40:14.221Z,21.20
2022-10-13T11:42:56.911Z,20.80
2022-10-13T11:45:49.976Z,20.50
2022-10-13T11:48:38.233Z,20.10
2022-10-13T11:51:29.707Z,19.70
2022-10-13T11:54:11.651Z,19.40
2022-10-13T11:56:55.351Z,19.10
2022-10-13T11:59:29.325Z,18.90
2022-10-13T12:02:12.382Z,18.80
2022-10-13T12:04:45.670Z,18.60
2022-10-13T12:07:15.953Z,18.50
2022-10-13T12:09:53.401Z,18.30
2022-10-13T12:12:23.777Z,18.10
2022-10-13T12:14:53.603Z,18.00
2022-10-13T12:17:39.133Z,17.90
2022-10-13T12:20:25.531Z,17.80
2022-10-13T12:22:54.283Z,17.60
2022-10-13T12:25:28.078Z,17.50
2022-10-13T12:28:00.157Z,17.40
2022-10-13T12:30:31.017Z,17.20
2022-10-13T12:33:00.532Z,17.10
2022-10-13T12:35:32.719Z,17.00
2022-10-13T12:38:06.665Z,16.90
2022-10-13T12:40:35.638Z,16.90
2022-10-13T12:43:05.315Z,16.80
2022-10-13T12:45:34.506Z,16.70
2022-10-13T12:48:01.459Z,16.60
2022-10-13T12:50:31.373Z,16.50
2022-10-13T12:53:19.070Z,16.50
2022-10-13T12:56:07.144Z,16.40
2022-10-13T12:58:36.113Z,16.40
2022-10-13T13:01:24.826Z,16.30
2022-10-13T13:04:15.058Z,16.30
2022-10-13T13:06:56.547Z,16.30
2022-10-13T13:09:29.340Z,16.20
2022-10-13T13:12:11.367Z,16.20
2022-10-13T13:14:38.385Z,16.20
2022-10-13T13:17:17.341Z,16.20
2022-10-13T13:19:52.214Z,16.10
2022-10-13T13:22:19.658Z,16.10
2022-10-13T13:24:47.208Z,16.10
2022-10-13T13:27:46.531Z,16.10
2022-10-13T13:30:18.928Z,16.00
2022-10-13T13:32:45.902Z,16.00
2022-10-13T13:35:13.167Z,15.90
2022-10-13T13:37:41.758Z,15.80
2022-10-13T13:40:14.594Z,15.70
2022-10-13T13:42:41.593Z,15.70
2022-10-13T13:45:13.353Z,15.60
2022-10-13T13:47:40.805Z,15.60
2022-10-13T13:50:20.931Z,15.60
2022-10-13T13:52:56.616Z,15.50
2022-10-13T13:55:23.843Z,15.50
2022-10-13T13:57:50.902Z,15.50
2022-10-13T14:00:18.403Z,15.40
2022-10-13T14:02:47.520Z,15.40
2022-10-13T14:05:18.448Z,15.50
2022-10-13T14:07:45.545Z,15.40
2022-10-13T14:10:12.438Z,15.50
2022-10-13T14:12:39.432Z,15.50
2022-10-13T14:15:07.205Z,15.50
2022-10-13T14:17:34.162Z,15.40
2022-10-13T14:20:01.125Z,15.40
2022-10-13T14:22:28.105Z,15.50
2022-10-13T14:24:55.042Z,15.40
2022-10-13T14:27:22.860Z,15.40
2022-10-13T14:29:49.906Z,15.40
2022-10-13T14:32:18.453Z,15.30
2022-10-13T14:34:45.618Z,15.30
2022-10-13T14:37:12.518Z,15.30
2022-10-13T14:39:39.609Z,15.20
2022-10-13T14:42:06.712Z,15.20
2022-10-13T14:44:33.591Z,15.10
2022-10-13T14:47:00.489Z,15.10
2022-10-13T14:49:27.383Z,15.10
2022-10-13T14:51:54.325Z,15.10
2022-10-13T14:54:21.376Z,15.10
2022-10-13T14:56:51.461Z,15.10
2022-10-13T14:59:18.734Z,15.00
2022-10-13T15:01:48.325Z,15.10
2022-10-13T15:04:15.317Z,15.10
2022-10-13T15:06:42.268Z,15.00
2022-10-13T15:09:10.114Z,15.00
2022-10-13T15:11:37.404Z,15.00
2022-10-13T15:14:04.718Z,15.00
2022-10-13T15:16:35.315Z,14.90
2022-10-13T15:19:03.336Z,14.90
2022-10-13T15:21:30.423Z,14.90
2022-10-13T15:23:57.533Z,14.90
2022-10-13T15:26:24.922Z,14.80
2022-10-13T15:28:53.267Z,14.80
2022-10-13T15:31:21.824Z,14.80
2022-10-13T15:33:51.590Z,14.80
2022-10-13T15:36:24.277Z,14.70
2022-10-13T15:38:53.127Z,14.70
2022-10-13T15:41:21.459Z,14.70
2022-10-13T15:43:48.494Z,14.70
2022-10-13T15:46:21.503Z,14.60
2022-10-13T15:48:49.699Z,14.60
2022-10-13T15:51:19.649Z,14.60
2022-10-13T15:53:49.972Z,14.60
2022-10-13T15:56:17.245Z,14.60
2022-10-13T15:58:45.467Z,14.60
2022-10-13T16:01:13.565Z,14.60
2022-10-13T16:03:41.360Z,14.60
2022-10-13T16:06:10.700Z,14.60
2022-10-13T16:08:39.575Z,14.50
2022-10-13T16:11:15.126Z,14.50
2022-10-13T16:13:46.213Z,14.50
2022-10-13T16:16:13.384Z,14.50
2022-10-13T16:18:41.278Z,14.50
2022-10-13T16:21:13.349Z,14.50
2022-10-13T16:23:44.567Z,14.40
2022-10-13T16:26:11.705Z,14.40
2022-10-13T16:28:38.978Z,14.40
2022-10-13T16:31:08.958Z,14.40
2022-10-13T16:33:37.899Z,14.40
2022-10-13T16:36:06.319Z,14.30
2022-10-13T16:38:33.284Z,14.30
2022-10-13T16:41:08.537Z,14.30
2022-10-13T16:43:35.939Z,14.30
2022-10-13T16:46:04.864Z,14.30
2022-10-13T16:48:33.211Z,14.30
2022-10-13T16:51:05.257Z,14.30
2022-10-13T16:53:32.483Z,14.20
2022-10-13T16:55:59.711Z,14.20
2022-10-13T16:58:26.885Z,14.20
2022-10-13T17:00:54.466Z,14.20
2022-10-13T17:03:21.658Z,14.10
2022-10-13T17:05:52.879Z,14.10
2022-10-13T17:08:19.861Z,14.10
2022-10-13T17:10:49.264Z,14.00
2022-10-13T17:13:18.650Z,14.00
2022-10-13T17:15:57.056Z,14.00
2022-10-13T17:18:24.877Z,13.90
2022-10-13T17:20:57.285Z,13.90
2022-10-13T17:23:25.366Z,13.90
2022-10-13T17:25:53.347Z,13.80
2022-10-13T17:28:20.777Z,13.80
2022-10-13T17:31:05.209Z,13.80
2022-10-13T17:33:34.305Z,13.70
2022-10-13T17:36:03.403Z,13.70
2022-10-13T17:38:31.010Z,13.60
2022-10-13T17:41:06.446Z,13.60
2022-10-13T17:43:34.659Z,13.60
2022-10-13T17:46:35.704Z,13.50
2022-10-13T17:49:00.597Z,13.50
2022-10-13T17:51:27.920Z,13.50
2022-10-13T17:53:55.353Z,13.40
2022-10-13T17:56:26.709Z,13.40
2022-10-13T17:58:54.314Z,13.40
2022-10-13T18:01:24.842Z,13.40
2022-10-13T18:03:57.884Z,13.30
2022-10-13T18:06:37.877Z,13.30
2022-10-13T18:09:15.324Z,13.30
2022-10-13T18:11:49.686Z,13.20
2022-10-13T18:14:20.629Z,13.10
2022-10-13T18:16:52.318Z,13.10
2022-10-13T18:19:19.807Z,13.10
2022-10-13T18:21:47.155Z,13.00
2022-10-13T18:24:14.251Z,13.00
2022-10-13T18:26:41.274Z,12.90
2022-10-13T18:29:10.224Z,12.90
2022-10-13T18:31:38.676Z,12.80
2022-10-13T18:34:08.032Z,12.80
2022-10-13T18:36:37.402Z,12.80
2022-10-13T18:39:19.996Z,12.70
2022-10-13T18:41:49.186Z,12.70
2022-10-13T18:44:16.585Z,12.60
2022-10-13T18:46:43.961Z,12.60
2022-10-13T18:49:13.338Z,12.60
2022-10-13T18:51:42.387Z,12.50
2022-10-13T18:54:09.400Z,12.50
2022-10-13T18:56:37.326Z,12.50
2022-10-13T18:59:06.344Z,12.40
2022-10-13T19:01:35.766Z,12.40
2022-10-13T19:04:03.188Z,12.40
2022-10-13T19:06:32.291Z,12.40
2022-10-13T19:09:04.849Z,12.40
2022-10-13T19:11:35.221Z,12.30
2022-10-13T19:14:04.177Z,12.30
2022-10-13T19:16:32.675Z,12.30
2022-10-13T19:18:59.585Z,12.30
2022-10-13T19:21:26.956Z,12.20
2022-10-13T19:23:54.001Z,12.20
2022-10-13T19:26:24.081Z,12.20
2022-10-13T19:29:03.409Z,12.20
2022-10-13T19:31:31.833Z,12.20
2022-10-13T19:33:59.658Z,12.20
2022-10-13T19:36:35.320Z,12.10
2022-10-13T19:39:04.598Z,12.10
2022-10-13T19:41:33.396Z,12.10
2022-10-13T19:44:00.479Z,12.10
2022-10-13T19:46:38.636Z,12.10
2022-10-13T19:49:06.124Z,12.10
2022-10-13T19:51:34.330Z,12.10
2022-10-13T19:54:01.737Z,12.10
2022-10-13T19:56:34.038Z,12.10
2022-10-13T19:59:04.413Z,12.10
2022-10-13T20:01:32.832Z,12.10
2022-10-13T20:04:01.277Z,12.10
2022-10-13T20:06:28.285Z,12.10
2022-10-13T20:08:55.217Z,12.00
2022-10-13T20:11:24.204Z,12.00
2022-10-13T20:13:52.871Z,12.00
2022-10-13T20:16:23.109Z,12.00
2022-10-13T20:19:00.480Z,12.00
2022-10-13T20:21:28.569Z,12.00
2022-10-13T20:23:56.387Z,12.00
2022-10-13T20:26:24.340Z,11.90
2022-10-13T20:28:52.162Z,11.90
2022-10-13T20:31:21.202Z,11.90
2022-10-13T20:33:49.564Z,11.90
2022-10-13T20:36:19.026Z,11.90
2022-10-13T20:38:47.793Z,11.80
2022-10-13T20:41:23.474Z,11.90
2022-10-13T20:43:51.838Z,11.80
2022-10-13T20:46:20.425Z,11.80
2022-10-13T20:51:35.759Z,11.80
2022-10-13T20:54:02.645Z,11.80
2022-10-13T20:56:29.886Z,11.80
2022-10-13T20:58:57.175Z,11.70
2022-10-13T21:01:24.238Z,11.70
2022-10-13T21:03:52.845Z,11.70
2022-10-13T21:06:20.221Z,11.70
2022-10-13T21:08:47.291Z,11.80
2022-10-13T21:11:16.358Z,11.70
2022-10-13T21:13:44.610Z,11.70
2022-10-13T21:16:12.912Z,11.80
2022-10-13T21:18:40.219Z,11.80
2022-10-13T21:21:09.603Z,11.80
2022-10-13T21:23:37.401Z,11.80
2022-10-13T21:26:06.530Z,11.80
2022-10-13T21:28:36.391Z,11.90
2022-10-13T21:31:12.050Z,11.90
2022-10-13T21:33:40.691Z,11.90
2022-10-13T21:36:17.951Z,11.90
2022-10-13T21:38:45.896Z,11.90
2022-10-13T21:41:14.091Z,11.90
2022-10-13T21:43:41.335Z,11.90
2022-10-13T21:46:13.517Z,11.90
2022-10-13T21:48:43.370Z,11.90
2022-10-13T21:51:22.178Z,12.00
2022-10-13T21:54:00.204Z,12.00
2022-10-13T21:56:30.561Z,12.00
2022-10-13T21:58:59.346Z,12.00
2022-10-13T22:01:26.353Z,12.00
2022-10-13T22:03:56.394Z,12.00
2022-10-13T22:06:26.973Z,12.00
2022-10-13T22:08:56.358Z,12.00
2022-10-13T22:11:25.571Z,12.00
2022-10-13T22:13:52.807Z,12.00
2022-10-13T22:16:22.483Z,12.00
2022-10-13T22:18:52.883Z,12.00
2022-10-13T22:21:22.854Z,12.00
2022-10-13T22:23:50.145Z,12.00
2022-10-13T22:26:18.718Z,12.00
2022-10-13T22:28:48.282Z,12.00
2022-10-13T22:31:15.457Z,12.00
2022-10-13T22:33:43.183Z,12.00
2022-10-13T22:36:17.118Z,12.00
2022-10-13T22:38:45.697Z,11.90
2022-10-13T22:41:14.641Z,11.90
2022-10-13T22:43:47.987Z,11.90
2022-10-13T22:46:17.637Z,11.90
2022-10-13T22:48:44.933Z,11.90
2022-10-13T22:51:19.759Z,11.80
2022-10-13T22:53:47.026Z,11.80
2022-10-13T22:56:17.449Z,11.80
2022-10-13T22:58:48.353Z,11.80
2022-10-13T23:01:15.649Z,11.70
2022-10-13T23:03:42.777Z,11.70
2022-10-13T23:06:15.465Z,11.70
2022-10-13T23:08:42.745Z,11.70
2022-10-13T23:11:10.181Z,11.70
2022-10-13T23:13:37.558Z,11.70
2022-10-13T23:16:07.237Z,11.60
2022-10-13T23:18:34.597Z,11.60
2022-10-13T23:21:10.355Z,11.60
2022-10-13T23:23:37.661Z,11.60
2022-10-13T23:26:06.664Z,11.60
2022-10-13T23:28:34.281Z,11.60
2022-10-13T23:31:03.887Z,11.50
2022-10-13T23:33:31.696Z,11.50
2022-10-13T23:36:00.775Z,11.50
2022-10-13T23:38:29.380Z,11.50
2022-10-13T23:40:56.239Z,11.50
2022-10-13T23:43:23.207Z,11.50
2022-10-13T23:45:50.140Z,11.50
2022-10-13T23:48:17.128Z,11.50
2022-10-13T23:50:44.138Z,11.50
2022-10-13T23:53:12.330Z,11.50
2022-10-13T23:55:39.924Z,11.60
2022-10-13T23:58:08.021Z,11.60
